Agung Darmawan

Scout - PSIM
14 Nov 2027
Sunday
Process

Personality

Adaptability (13) Ambition (19) Controversy (3) Loyalty (13) Pressure (9) Professionalism (17) Sportsmanship (10) Temperament (11)

Profile

Coaching Style Democratic
License Continental Pro
Determination 8
Man Management 9
Motivating 4
Discipline 6
Job Satisfaction
87%
Fatigue
0%
Role Scout
Wage 26.7K p/w
Contract 14.03.2028

Performance

Behaviour Good
Training Effectiveness
23%
Player Development
35%
Injury Prevention
30%
Tactical Implementation
15%

Currently Monitoring

91
Player Club Status Ability Confidence Watched Last Observed Latest Vote
Joel Arema Active 88 / 82 40% 4 27.08.2027 -
Somila Ntsundwana Atyrau Active 88 / 94 40% 3 27.08.2027 -
Marcos Camarda Santiago Wanderers Active 112 / 105 40% 2 27.08.2027 -
Kianz Froese Semen Padang Active 110 / 113 40% 6 24.08.2027 -
Lautaro Gordillo Colegiales Active 117 / 115 40% 1 24.08.2027 -
Valdeci Arema Active 101 / 86 40% 1 24.08.2027 -
Enzo Avaro Mitre Active 117 / 128 40% 4 23.08.2027 -
Lisandro Cabrera Maipú Active 114 / 134 40% 1 23.08.2027 -
Enzo González Defensores Active 105 / 85 40% 1 23.08.2027 -
Alexis Gómez Persijap Active 107 / 85 40% 3 21.08.2027 -
Mauricio Lacerda Miramar Misiones Active 80 / 106 40% 2 21.08.2027 -
Arwin Javad Persijap Active 77 / 75 40% 1 21.08.2027 -
Augusto Berrondo Tristán Suárez Active 120 / 117 40% 2 20.08.2027 -
Tomás Bolzicco Chaco For Ever Active 106 / 89 40% 1 20.08.2027 -
Agustín Gallo Tristán Suárez Active 120 / 112 40% 1 20.08.2027 -
Sávio PSM Active 94 / 89 40% 3 19.08.2027 -
Aaron Spetale Quilmes Active 111 / 101 40% 1 19.08.2027 -
Mohcine Hassan PSBS Biak Active 78 / 85 40% 1 19.08.2027 -
Alejandro Melo Temperley Active 105 / 94 40% 1 18.08.2027 -
Santiago Apa All Boys Active 119 / 118 40% 1 18.08.2027 -
Yacob Sayuri Maluku Utara United Active 80 / 87 40% 1 18.08.2027 -
Esteban da Silva Racing Active 112 / 119 40% 4 16.08.2027 -
Gustavo Almeida Persija Active 102 / 79 40% 3 16.08.2027 -
Leonardo Bellini Pianese Active 97 / 87 40% 2 16.08.2027 -
Jort van der Sande Bali United Active 106 / 109 40% 6 15.08.2027 -
Dejan Tumbas Persis Active 101 / 109 40% 2 15.08.2027 -
Mihailo Perović Persebaya Active 101 / 113 40% 2 15.08.2027 -
Manuel López Defensores Unidos Active 92 / 101 40% 2 12.08.2027 -
Naoufel Zerhouni Nasaf Active 119 / 109 40% 1 12.08.2027 -
Ezra Walian Persik Active 100 / 100 40% 2 11.08.2027 -
Agustín Dávila Montevideo City Torque Active 89 / 106 40% 2 09.08.2027 -
Uilliam Barros Persib Active 99 / 94 40% 2 09.08.2027 -
Harvey Saunders Tranmere Rovers Active 92 / 72 40% 3 08.08.2027 -
Marc Gual Kairat Active 122 / 123 40% 1 08.08.2027 -
Beryly Lubala Vicenza Active 96 / 114 40% 1 08.08.2027 -
Ahmad Noviandani Madura United Active 74 / 81 40% 1 07.08.2027 -
Callum Paterson Milton Keynes Dons Active 113 / 92 40% 1 06.08.2027 -
Santiago Sala Güemes Active 111 / 107 40% 1 06.08.2027 -
Charlie Brown Accrington Stanley Active 92 / 79 40% 3 05.08.2027 -
Chinonso Chibueze Harrogate Town Active 84 / 85 40% 1 05.08.2027 -
Aaron Drinan Swindon Town Active 110 / 86 40% 3 03.08.2027 -
Jere Vrcić Birkirkara Active 104 / 95 40% 1 03.08.2027 -
Manu Justo Cultural Leonesa Active 125 / 95 40% 1 02.08.2027 -
Kabiru Abdullahi Northampton Town Active 92 / 106 40% 1 01.08.2027 -
Boris Kopitović Bali United Active 95 / 96 40% 1 30.07.2027 -
Aiden Marsh Harrogate Town Active 88 / 78 40% 1 30.07.2027 -
Kane Drummond Oldham Athletic Active 103 / 77 40% 2 29.07.2027 -
Ignacio Pereira River Plate Active 112 / 88 40% 3 28.07.2027 -
Destiny Efosa Egharevba Picerno Active 101 / 92 40% 1 28.07.2027 -
Frets Butuan Maluku Utara United Active 72 / 73 40% 3 27.07.2027 -
Michael Ruhs Kokand 1912 Active 91 / 110 40% 1 27.07.2027 -
Danilo Santacruz Madura United Active 101 / 111 40% 5 26.07.2027 -
Diego Campos Bali United Active 114 / 115 40% 1 26.07.2027 -
Juan Cruz Franzoni Gimnasia y Esgrima Active 96 / 103 40% 1 26.07.2027 -
Dimitar Mitkov Madura United Active 109 / 99 40% 2 24.07.2027 -
Sonny Cox Exeter City Active 99 / 111 40% 4 21.07.2027 -
Paschal Durugbor Irtysh Active 98 / 100 40% 2 20.07.2027 -
Ricardo Schutte Penafiel Active 110 / 95 40% 1 20.07.2027 -
Samson Tovide Colchester United Active 109 / 86 40% 3 18.07.2027 -
Kazaki Nakagawa Semen Padang Active 85 / 91 40% 1 18.07.2027 -
Dendy Sulistyawan Bhayangkara Presisi Active 87 / 97 40% 3 14.07.2027 -
Jacques Thémopelé PSM Active 83 / 89 40% 1 14.07.2027 -
Feby Eka Putra Persis Active 82 / 69 40% 1 13.07.2027 -
Ronan Curtis Plymouth Argyle Active 105 / 99 40% 1 13.07.2027 -
Safrudin Tahar Maluku Utara United Rejected 71 / 67 72% 1 12.07.2027 Reject
Barrie Limoki Nadroga Active 71 / 88 40% 1 12.07.2027 -
Matías Pérez Alvarado Active 97 / 83 40% 2 07.07.2027 -
Mathías Panduro Deportivo Municipal Active 87 / 85 40% 1 05.07.2027 -
Diego Sánchez River Plate Active 80 / 93 40% 1 05.07.2027 -
Dalberto Arema Active 111 / 115 40% 5 03.07.2027 -
Gustavo França Arema Active 98 / 106 40% 3 30.06.2027 -
Jovan Malcolm Stevenage Active 84 / 78 40% 2 28.06.2027 -
Bernard Henri Doumbia Bhayangkara Presisi Rejected 80 / 95 72% 1 28.06.2027 Reject
Jean Marie Dongou Atyrau Active 88 / 88 40% 1 28.06.2027 -
Didier Amou-Djaba Lokeren Active 101 / 71 40% 1 26.06.2027 -
Sergio Castel Persik Active 122 / 101 40% 2 25.06.2027 -
Sheriddin Boboev PSM Active 92 / 109 40% 1 25.06.2027 -
Kevin Martinez Cortulua Active 61 / 62 40% 3 24.06.2027 -
Jaiden Kucharski Perth Glory Active 91 / 85 40% 2 23.06.2027 -
Flamarion Pakhtakor Active 114 / 114 40% 1 23.06.2027 -
Midana Cassamá Portimonense Active 103 / 110 40% 1 21.06.2027 -
Aporosa Yada Labasa Active 72 / 73 40% 1 17.06.2027 -
Juan David Rueda Alianza Petrolera Active 101 / 125 40% 2 14.06.2027 -
Rakhmatsho Rakhmatzoda Persijap Rejected 83 / 86 72% 1 03.06.2027 Reject
Claudio Salto Almagro Active 103 / 87 40% 1 02.06.2027 -
Daniel Kyerewaa Reading Active 113 / 125 40% 2 30.01.2027 -
Miguel Sousa Leixões Active 111 / 126 40% 2 30.01.2027 -
Bobby Pointon Bradford City Active 110 / 97 40% 1 30.01.2027 -
Luca Connell Barnsley Active 111 / 132 40% 1 27.01.2027 -
Jon Toral Persik Active 119 / 103 40% 2 17.01.2027 -
Duarte Cunha Porto Active 87 / 88 40% 1 17.01.2027 -